Stannard, Vermont
Current Conditions -  °F | °C
As of 11:15 AM on Sunday 23 Nov 2014 (Local Time) from KCDA Reporting Station
Haze Haze  
Wind Chill: 37°   Ceiling: 1600
Heat Index: 37°   Visibility: 0.75mi
Dew Point: 35°   Wind: 0mph
Humidity: 93%   Direction: NA
Pressure: 30.05"   Gusts: NA
Location:  44.542°N, 72.2145°W
Report Text: KCDA 231615Z AUTO 00000KT 3/4SM BR OVC016 03/02 A3005 RMK AO2 T00270016
Loading
Personal Weather Stations






























Interactive Weather Map New forecast layout! Learn more

10-Day Weather Forecast

Advertisements
Track Severe Weather on mobile